createdAt,value
2024-01-16T00:13:45.797Z,7.13
2024-01-16T02:02:12.693Z,44.97
2024-01-16T02:03:48.548Z,31.88
2024-01-16T02:05:21.277Z,31.88
2024-01-16T02:06:53.577Z,35.25
2024-01-16T02:08:26.050Z,32.20
2024-01-16T03:35:07.952Z,19.73
2024-01-16T03:36:40.266Z,27.88
2024-01-16T03:38:12.486Z,22.05
2024-01-16T03:39:46.467Z,17.60
2024-01-16T03:41:18.722Z,19.20
2024-01-16T03:42:50.862Z,18.58
2024-01-16T03:44:23.130Z,17.13
2024-01-16T07:50:07.638Z,7.20
2024-01-16T07:51:41.122Z,5.93
2024-01-16T07:53:13.763Z,4.60
2024-01-16T07:54:46.109Z,11.57
2024-01-16T13:36:39.824Z,11.30
2024-01-16T13:38:15.171Z,13.90
2024-01-16T13:39:47.937Z,19.08
2024-01-16T13:41:20.217Z,10.98
2024-01-16T13:42:53.153Z,9.88
2024-01-16T13:44:25.877Z,8.07
2024-01-16T18:02:43.552Z,11.93
2024-01-16T18:04:15.897Z,9.55
2024-01-16T18:05:50.658Z,10.98
2024-01-16T18:07:22.842Z,7.65
2024-01-16T18:08:55.310Z,13.15
2024-01-16T18:10:28.279Z,8.30
2024-01-16T18:12:00.851Z,7.57
2024-01-16T18:13:33.581Z,7.32
2024-01-16T18:15:13.264Z,7.90
2024-01-16T18:16:45.618Z,8.35
2024-01-16T18:18:18.952Z,8.65
2024-01-16T18:19:53.417Z,7.32
2024-01-16T18:21:25.788Z,8.23
2024-01-16T18:22:58.039Z,9.45
2024-01-16T18:24:30.713Z,5.85
2024-01-16T18:26:03.021Z,7.10
2024-01-16T18:27:35.463Z,7.35
2024-01-16T18:29:08.218Z,8.50
2024-01-16T18:30:40.808Z,11.77
2024-01-16T18:32:13.923Z,14.30
2024-01-16T18:33:46.475Z,18.60
2024-01-16T18:35:20.215Z,22.90
2024-01-16T18:36:55.195Z,19.17
2024-01-16T18:38:29.476Z,11.05
2024-01-16T18:40:02.048Z,7.28
2024-01-16T18:41:36.029Z,7.40
2024-01-16T18:43:09.384Z,7.50
2024-01-16T18:44:41.677Z,12.05
2024-01-16T18:46:16.096Z,7.07
2024-01-16T18:47:49.870Z,8.45
2024-01-16T18:49:22.557Z,8.88
2024-01-16T18:50:56.168Z,7.03
2024-01-16T18:52:28.620Z,8.85
2024-01-16T18:54:00.850Z,22.20
2024-01-16T18:55:33.158Z,24.90
2024-01-16T18:57:05.535Z,22.65
2024-01-16T18:58:38.267Z,15.00
2024-01-16T19:00:15.366Z,10.25
2024-01-16T19:01:47.889Z,9.15
2024-01-16T19:03:20.648Z,10.32
2024-01-16T19:04:53.249Z,10.07
2024-01-16T19:06:25.636Z,15.07
2024-01-16T19:07:58.108Z,16.95
2024-01-16T19:09:38.362Z,22.92
2024-01-16T19:11:10.940Z,20.63
2024-01-16T19:12:44.342Z,18.20
2024-01-16T19:14:18.483Z,19.27
2024-01-16T19:15:52.033Z,19.75
2024-01-16T19:17:24.355Z,20.00
2024-01-16T19:18:56.730Z,16.90
2024-01-16T19:20:29.805Z,21.92
2024-01-16T19:22:02.227Z,18.45
2024-01-16T19:23:36.148Z,19.63
2024-01-16T19:25:12.858Z,24.83
2024-01-16T19:26:45.563Z,27.58
2024-01-16T19:28:17.989Z,28.63
2024-01-16T19:29:50.354Z,34.67
2024-01-16T19:31:22.813Z,30.80
2024-01-16T19:32:55.703Z,20.17
2024-01-16T19:34:28.302Z,21.88
2024-01-16T19:36:03.007Z,28.33
2024-01-16T19:37:36.044Z,26.50
2024-01-16T19:39:16.186Z,20.83
2024-01-16T19:40:48.572Z,19.50
2024-01-16T19:42:20.872Z,19.05
2024-01-16T19:43:53.065Z,20.48
2024-01-16T19:45:25.749Z,20.35
2024-01-16T19:46:58.282Z,27.95
2024-01-16T19:48:30.999Z,36.70
2024-01-16T19:50:06.935Z,40.88
2024-01-16T19:51:42.167Z,45.40
2024-01-16T19:53:15.818Z,58.65
2024-01-16T19:54:48.100Z,56.60
2024-01-16T19:56:20.381Z,28.15
2024-01-16T19:57:54.579Z,31.75
2024-01-16T19:59:27.020Z,36.70
2024-01-16T20:00:59.444Z,41.70
2024-01-16T20:02:31.817Z,38.15
2024-01-16T20:04:04.324Z,32.42
2024-01-16T20:05:43.686Z,28.90
2024-01-16T20:07:16.274Z,23.48
2024-01-16T20:08:53.160Z,23.85
2024-01-16T20:10:25.527Z,21.92
2024-01-16T20:12:01.698Z,19.77
2024-01-16T20:13:33.982Z,25.50
2024-01-16T20:15:06.996Z,19.63
2024-01-16T20:16:40.369Z,21.23
2024-01-16T20:18:13.539Z,19.13
2024-01-16T20:19:45.848Z,17.50
2024-01-16T20:21:18.213Z,18.15
2024-01-16T20:41:04.974Z,20.92
2024-01-16T20:42:38.514Z,23.67
2024-01-16T20:45:43.488Z,21.20
2024-01-16T20:47:15.745Z,24.30
2024-01-16T20:48:48.052Z,23.05
2024-01-16T20:50:20.430Z,22.48
2024-01-16T20:51:55.352Z,19.98
2024-01-16T20:53:28.667Z,23.98
2024-01-16T20:55:03.476Z,23.33
2024-01-16T20:56:41.604Z,22.30
2024-01-16T20:58:13.958Z,25.27
2024-01-16T20:59:46.881Z,23.90
2024-01-16T21:01:19.103Z,22.73
2024-01-16T21:02:51.385Z,24.10
2024-01-16T21:04:23.654Z,22.42
2024-01-16T21:05:56.665Z,21.67
2024-01-16T21:07:29.329Z,18.83
2024-01-16T21:09:02.015Z,18.52
2024-01-16T21:10:34.247Z,19.80
2024-01-16T21:12:07.065Z,20.13
2024-01-16T21:13:39.434Z,16.70
2024-01-16T21:15:11.608Z,23.48
2024-01-16T21:16:43.789Z,17.02
2024-01-16T21:18:17.773Z,13.07
2024-01-16T21:19:53.718Z,17.05
2024-01-16T21:21:26.480Z,15.27
2024-01-16T21:22:58.785Z,13.65
2024-01-16T21:24:31.149Z,15.88
2024-01-16T21:26:03.763Z,12.13
2024-01-16T21:27:38.678Z,14.55
2024-01-16T21:29:10.965Z,11.05
2024-01-16T21:30:44.027Z,11.48
2024-01-16T21:32:16.979Z,11.65
2024-01-16T21:33:49.390Z,11.05
2024-01-16T21:35:22.303Z,10.88
2024-01-16T21:36:54.765Z,11.27
2024-01-16T21:38:28.254Z,9.57
2024-01-16T21:40:00.501Z,19.85
2024-01-16T21:41:32.729Z,10.25
2024-01-16T21:43:05.145Z,11.23
2024-01-16T21:44:37.403Z,10.73
2024-01-16T21:46:10.262Z,11.88
2024-01-16T21:47:44.121Z,11.65
2024-01-16T21:49:16.780Z,10.32
2024-01-16T21:50:49.163Z,14.38
2024-01-16T21:52:22.278Z,15.13
2024-01-16T21:53:55.263Z,15.82
2024-01-16T21:55:27.741Z,11.80
2024-01-16T21:57:00.113Z,13.10
2024-01-16T21:58:32.617Z,11.07
2024-01-16T22:00:06.201Z,10.55
2024-01-16T22:03:10.472Z,10.80
2024-01-16T22:04:42.862Z,10.65
2024-01-16T22:06:15.395Z,13.63
2024-01-16T22:07:49.374Z,12.07
2024-01-16T22:09:27.581Z,11.52
2024-01-16T22:10:59.939Z,18.40
2024-01-16T22:12:32.218Z,10.45
2024-01-16T22:14:04.612Z,10.85
2024-01-16T22:15:36.781Z,15.90
2024-01-16T22:17:09.244Z,14.63
2024-01-16T22:18:44.271Z,18.92
2024-01-16T22:20:18.322Z,21.10
2024-01-16T22:21:50.503Z,24.58
2024-01-16T22:23:22.877Z,20.48
2024-01-16T22:24:55.307Z,29.00
2024-01-16T22:26:27.588Z,21.75
2024-01-16T22:28:00.738Z,30.55
2024-01-16T22:29:33.009Z,34.92
2024-01-16T22:31:06.292Z,22.58
2024-01-16T22:32:38.722Z,20.88
2024-01-16T22:34:11.314Z,28.13
2024-01-16T22:35:43.657Z,30.67
2024-01-16T22:37:16.053Z,29.35
2024-01-16T22:38:48.644Z,27.80
2024-01-16T22:40:20.979Z,24.93
2024-01-16T22:41:53.243Z,28.20
2024-01-16T22:43:25.652Z,31.13
2024-01-16T22:44:57.886Z,27.38
2024-01-16T22:46:30.110Z,22.00
2024-01-16T22:48:06.770Z,20.55
2024-01-16T22:49:39.074Z,14.63
2024-01-16T22:51:11.283Z,14.38
2024-01-16T22:52:43.430Z,14.07
2024-01-16T22:54:15.925Z,15.52
2024-01-16T22:55:48.177Z,12.30
2024-01-16T22:57:20.402Z,14.15
2024-01-16T22:58:52.556Z,15.20
2024-01-16T23:00:24.811Z,12.38
2024-01-16T23:01:57.306Z,10.88
2024-01-16T23:03:31.010Z,14.23
2024-01-16T23:05:03.793Z,12.68
2024-01-16T23:06:37.245Z,10.90
2024-01-16T23:08:11.992Z,13.65
2024-01-16T23:09:48.781Z,12.32
2024-01-16T23:11:21.068Z,13.88
2024-01-16T23:12:53.245Z,11.73
2024-01-16T23:14:25.477Z,11.90
2024-01-16T23:15:57.614Z,13.18
2024-01-16T23:17:31.268Z,14.40
2024-01-16T23:19:03.703Z,13.95
2024-01-16T23:20:36.068Z,14.07
2024-01-16T23:22:08.830Z,22.98
2024-01-16T23:23:45.380Z,22.33
2024-01-16T23:25:17.638Z,22.30
2024-01-16T23:26:50.055Z,23.50
2024-01-16T23:28:22.276Z,48.97
2024-01-16T23:29:54.519Z,46.42
2024-01-16T23:31:26.688Z,41.55
2024-01-16T23:32:58.957Z,15.32
2024-01-16T23:34:31.245Z,11.73
2024-01-16T23:36:03.523Z,15.05
2024-01-16T23:37:37.595Z,28.58
2024-01-16T23:39:12.818Z,32.90
2024-01-16T23:40:45.065Z,24.50
2024-01-16T23:42:20.752Z,24.88
2024-01-16T23:43:53.081Z,25.98
2024-01-16T23:47:05.304Z,29.20
2024-01-16T23:48:38.415Z,24.70
2024-01-16T23:50:11.462Z,42.05
2024-01-16T23:52:02.528Z,24.83
2024-01-16T23:53:37.447Z,25.77
2024-01-16T23:55:13.124Z,23.73
2024-01-16T23:56:45.354Z,31.92
2024-01-16T23:58:17.534Z,31.10
2024-01-16T23:59:49.753Z,31.48
